sensor_id;sensor_type;location;lat;lon;timestamp;temperature;humidity
8611;DHT22;4343;53.648;10.098;2022-07-18T00:00:29;16.20;99.90
8611;DHT22;4343;53.648;10.098;2022-07-18T00:02:54;16.10;99.90
8611;DHT22;4343;53.648;10.098;2022-07-18T00:05:20;16.10;99.90
8611;DHT22;4343;53.648;10.098;2022-07-18T00:07:46;16.10;99.90
8611;DHT22;4343;53.648;10.098;2022-07-18T00:10:11;16.10;99.90
8611;DHT22;4343;53.648;10.098;2022-07-18T00:12:37;16.00;99.90
8611;DHT22;4343;53.648;10.098;2022-07-18T00:15:03;16.00;99.90
8611;DHT22;4343;53.648;10.098;2022-07-18T00:17:29;16.00;99.90
8611;DHT22;4343;53.648;10.098;2022-07-18T00:19:55;16.00;99.90
8611;DHT22;4343;53.648;10.098;2022-07-18T00:22:20;15.90;99.90
8611;DHT22;4343;53.648;10.098;2022-07-18T00:24:46;15.90;99.90
8611;DHT22;4343;53.648;10.098;2022-07-18T00:27:11;15.90;99.90
8611;DHT22;4343;53.648;10.098;2022-07-18T00:29:38;15.90;99.90
8611;DHT22;4343;53.648;10.098;2022-07-18T00:32:05;15.90;99.90
8611;DHT22;4343;53.648;10.098;2022-07-18T00:34:32;15.90;99.90
8611;DHT22;4343;53.648;10.098;2022-07-18T00:36:58;15.90;99.90
8611;DHT22;4343;53.648;10.098;2022-07-18T00:39:24;15.90;99.90
8611;DHT22;4343;53.648;10.098;2022-07-18T00:41:50;15.90;99.90
8611;DHT22;4343;53.648;10.098;2022-07-18T00:44:18;15.80;99.90
8611;DHT22;4343;53.648;10.098;2022-07-18T00:46:44;15.80;99.90
8611;DHT22;4343;53.648;10.098;2022-07-18T00:49:09;15.80;99.90
8611;DHT22;4343;53.648;10.098;2022-07-18T00:51:35;15.80;99.90
8611;DHT22;4343;53.648;10.098;2022-07-18T00:54:04;15.80;99.90
8611;DHT22;4343;53.648;10.098;2022-07-18T00:56:30;15.80;99.90
8611;DHT22;4343;53.648;10.098;2022-07-18T00:58:56;15.80;99.90
8611;DHT22;4343;53.648;10.098;2022-07-18T01:01:21;15.80;99.90
8611;DHT22;4343;53.648;10.098;2022-07-18T01:04:05;15.70;99.90
8611;DHT22;4343;53.648;10.098;2022-07-18T01:06:31;15.70;99.90
8611;DHT22;4343;53.648;10.098;2022-07-18T01:08:57;15.70;99.90
8611;DHT22;4343;53.648;10.098;2022-07-18T01:11:23;15.70;99.90
8611;DHT22;4343;53.648;10.098;2022-07-18T01:13:49;15.70;99.90
8611;DHT22;4343;53.648;10.098;2022-07-18T01:16:16;15.70;99.90
8611;DHT22;4343;53.648;10.098;2022-07-18T01:18:47;15.60;99.90
8611;DHT22;4343;53.648;10.098;2022-07-18T01:21:13;15.60;99.90
8611;DHT22;4343;53.648;10.098;2022-07-18T01:23:39;15.60;99.90
8611;DHT22;4343;53.648;10.098;2022-07-18T01:26:05;15.60;99.90
8611;DHT22;4343;53.648;10.098;2022-07-18T01:28:31;15.60;99.90
8611;DHT22;4343;53.648;10.098;2022-07-18T01:30:57;15.60;99.90
8611;DHT22;4343;53.648;10.098;2022-07-18T01:33:22;15.50;99.90
8611;DHT22;4343;53.648;10.098;2022-07-18T01:35:48;15.60;99.90
8611;DHT22;4343;53.648;10.098;2022-07-18T01:38:13;15.50;99.90
8611;DHT22;4343;53.648;10.098;2022-07-18T01:40:39;15.50;99.90
8611;DHT22;4343;53.648;10.098;2022-07-18T01:43:05;15.50;99.90
8611;DHT22;4343;53.648;10.098;2022-07-18T01:45:30;15.40;99.90
8611;DHT22;4343;53.648;10.098;2022-07-18T01:47:56;15.40;99.90
8611;DHT22;4343;53.648;10.098;2022-07-18T01:50:22;15.40;99.90
8611;DHT22;4343;53.648;10.098;2022-07-18T01:52:47;15.40;99.90
8611;DHT22;4343;53.648;10.098;2022-07-18T01:55:13;15.40;99.90
8611;DHT22;4343;53.648;10.098;2022-07-18T01:57:39;15.40;99.90
8611;DHT22;4343;53.648;10.098;2022-07-18T02:00:07;15.40;99.90
8611;DHT22;4343;53.648;10.098;2022-07-18T02:02:33;15.30;99.90
8611;DHT22;4343;53.648;10.098;2022-07-18T02:04:59;15.30;99.90
8611;DHT22;4343;53.648;10.098;2022-07-18T02:07:25;15.30;99.90
8611;DHT22;4343;53.648;10.098;2022-07-18T02:09:51;15.30;99.90
8611;DHT22;4343;53.648;10.098;2022-07-18T02:12:16;15.20;99.90
8611;DHT22;4343;53.648;10.098;2022-07-18T02:14:42;15.20;99.90
8611;DHT22;4343;53.648;10.098;2022-07-18T02:17:08;15.20;99.90
8611;DHT22;4343;53.648;10.098;2022-07-18T02:19:33;15.20;99.90
8611;DHT22;4343;53.648;10.098;2022-07-18T02:21:59;15.20;99.90
8611;DHT22;4343;53.648;10.098;2022-07-18T02:24:24;15.20;99.90
8611;DHT22;4343;53.648;10.098;2022-07-18T02:26:50;15.20;99.90
8611;DHT22;4343;53.648;10.098;2022-07-18T02:29:15;15.10;99.90
8611;DHT22;4343;53.648;10.098;2022-07-18T02:31:41;15.20;99.90
8611;DHT22;4343;53.648;10.098;2022-07-18T02:34:06;15.10;99.90
8611;DHT22;4343;53.648;10.098;2022-07-18T02:36:39;15.20;99.90
8611;DHT22;4343;53.648;10.098;2022-07-18T02:39:05;15.20;99.90
8611;DHT22;4343;53.648;10.098;2022-07-18T02:41:31;15.20;99.90
8611;DHT22;4343;53.648;10.098;2022-07-18T02:43:57;15.20;99.90
8611;DHT22;4343;53.648;10.098;2022-07-18T02:46:23;15.10;99.90
8611;DHT22;4343;53.648;10.098;2022-07-18T02:48:49;15.10;99.90
8611;DHT22;4343;53.648;10.098;2022-07-18T02:51:15;15.20;99.90
8611;DHT22;4343;53.648;10.098;2022-07-18T02:53:40;15.10;99.90
8611;DHT22;4343;53.648;10.098;2022-07-18T02:56:06;15.10;99.90
8611;DHT22;4343;53.648;10.098;2022-07-18T02:58:31;15.20;99.90
8611;DHT22;4343;53.648;10.098;2022-07-18T03:00:58;15.20;99.90
8611;DHT22;4343;53.648;10.098;2022-07-18T03:03:23;15.20;99.90
8611;DHT22;4343;53.648;10.098;2022-07-18T03:05:49;15.20;99.90
8611;DHT22;4343;53.648;10.098;2022-07-18T03:08:15;15.10;99.90
8611;DHT22;4343;53.648;10.098;2022-07-18T03:10:40;15.10;99.90
8611;DHT22;4343;53.648;10.098;2022-07-18T03:13:06;15.10;99.90
8611;DHT22;4343;53.648;10.098;2022-07-18T03:15:31;15.10;99.90
8611;DHT22;4343;53.648;10.098;2022-07-18T03:17:57;15.10;99.90
8611;DHT22;4343;53.648;10.098;2022-07-18T03:20:23;15.10;99.90
8611;DHT22;4343;53.648;10.098;2022-07-18T03:22:48;15.10;99.90
8611;DHT22;4343;53.648;10.098;2022-07-18T03:25:14;15.10;99.90
8611;DHT22;4343;53.648;10.098;2022-07-18T03:27:39;15.10;99.90
8611;DHT22;4343;53.648;10.098;2022-07-18T03:30:05;15.10;99.90
8611;DHT22;4343;53.648;10.098;2022-07-18T03:32:31;15.10;99.90
8611;DHT22;4343;53.648;10.098;2022-07-18T03:34:57;15.10;99.90
8611;DHT22;4343;53.648;10.098;2022-07-18T03:37:22;15.10;99.90
8611;DHT22;4343;53.648;10.098;2022-07-18T03:39:48;15.10;99.90
8611;DHT22;4343;53.648;10.098;2022-07-18T03:42:13;15.10;99.90
8611;DHT22;4343;53.648;10.098;2022-07-18T03:44:39;15.00;99.90
8611;DHT22;4343;53.648;10.098;2022-07-18T03:47:05;15.00;99.90
8611;DHT22;4343;53.648;10.098;2022-07-18T03:49:30;15.00;99.90
8611;DHT22;4343;53.648;10.098;2022-07-18T03:51:56;15.00;99.90
8611;DHT22;4343;53.648;10.098;2022-07-18T03:54:22;15.00;99.90
8611;DHT22;4343;53.648;10.098;2022-07-18T03:56:49;15.00;99.90
8611;DHT22;4343;53.648;10.098;2022-07-18T03:59:14;15.00;99.90
8611;DHT22;4343;53.648;10.098;2022-07-18T04:01:40;15.10;99.90
8611;DHT22;4343;53.648;10.098;2022-07-18T04:04:05;15.00;99.90
8611;DHT22;4343;53.648;10.098;2022-07-18T04:06:31;15.00;99.90
8611;DHT22;4343;53.648;10.098;2022-07-18T04:08:56;15.10;99.90
8611;DHT22;4343;53.648;10.098;2022-07-18T04:11:22;15.10;99.90
8611;DHT22;4343;53.648;10.098;2022-07-18T04:13:50;15.10;99.90
8611;DHT22;4343;53.648;10.098;2022-07-18T04:16:16;15.10;99.90
8611;DHT22;4343;53.648;10.098;2022-07-18T04:18:42;15.20;99.90
8611;DHT22;4343;53.648;10.098;2022-07-18T04:21:07;15.20;99.90
8611;DHT22;4343;53.648;10.098;2022-07-18T04:23:33;15.20;99.90
8611;DHT22;4343;53.648;10.098;2022-07-18T04:25:58;15.20;99.90
8611;DHT22;4343;53.648;10.098;2022-07-18T04:28:24;15.20;99.90
8611;DHT22;4343;53.648;10.098;2022-07-18T04:30:50;15.20;99.90
8611;DHT22;4343;53.648;10.098;2022-07-18T04:33:15;15.20;99.90
8611;DHT22;4343;53.648;10.098;2022-07-18T04:35:41;15.20;99.90
8611;DHT22;4343;53.648;10.098;2022-07-18T04:38:08;15.30;99.90
8611;DHT22;4343;53.648;10.098;2022-07-18T04:40:34;15.30;99.90
8611;DHT22;4343;53.648;10.098;2022-07-18T04:43:00;15.30;99.90
8611;DHT22;4343;53.648;10.098;2022-07-18T04:45:26;15.30;99.90
8611;DHT22;4343;53.648;10.098;2022-07-18T04:47:53;15.30;99.90
8611;DHT22;4343;53.648;10.098;2022-07-18T04:50:19;15.40;99.90
8611;DHT22;4343;53.648;10.098;2022-07-18T04:52:46;15.40;99.90
8611;DHT22;4343;53.648;10.098;2022-07-18T04:55:13;15.40;99.90
8611;DHT22;4343;53.648;10.098;2022-07-18T04:57:39;15.40;99.90
8611;DHT22;4343;53.648;10.098;2022-07-18T05:00:08;15.50;99.90
8611;DHT22;4343;53.648;10.098;2022-07-18T05:02:34;15.50;99.90
8611;DHT22;4343;53.648;10.098;2022-07-18T05:04:59;15.50;99.90
8611;DHT22;4343;53.648;10.098;2022-07-18T05:07:25;15.60;99.90
8611;DHT22;4343;53.648;10.098;2022-07-18T05:09:50;15.70;99.90
8611;DHT22;4343;53.648;10.098;2022-07-18T05:12:16;15.70;99.90
8611;DHT22;4343;53.648;10.098;2022-07-18T05:14:44;15.80;99.90
8611;DHT22;4343;53.648;10.098;2022-07-18T05:17:09;15.90;99.90
8611;DHT22;4343;53.648;10.098;2022-07-18T05:19:35;15.90;99.90
8611;DHT22;4343;53.648;10.098;2022-07-18T05:22:00;16.00;99.90
8611;DHT22;4343;53.648;10.098;2022-07-18T05:24:26;16.00;99.90
8611;DHT22;4343;53.648;10.098;2022-07-18T05:26:51;16.10;99.90
8611;DHT22;4343;53.648;10.098;2022-07-18T05:29:17;16.10;99.90
8611;DHT22;4343;53.648;10.098;2022-07-18T05:31:43;16.20;99.90
8611;DHT22;4343;53.648;10.098;2022-07-18T05:34:09;16.30;99.90
8611;DHT22;4343;53.648;10.098;2022-07-18T05:36:34;16.30;99.90
8611;DHT22;4343;53.648;10.098;2022-07-18T05:39:00;16.30;99.90
8611;DHT22;4343;53.648;10.098;2022-07-18T05:41:27;16.40;99.90
8611;DHT22;4343;53.648;10.098;2022-07-18T05:43:52;16.40;99.90
8611;DHT22;4343;53.648;10.098;2022-07-18T05:46:18;16.40;99.90
8611;DHT22;4343;53.648;10.098;2022-07-18T05:48:44;16.50;99.90
8611;DHT22;4343;53.648;10.098;2022-07-18T05:51:11;16.50;99.90
8611;DHT22;4343;53.648;10.098;2022-07-18T05:53:36;16.50;99.90
8611;DHT22;4343;53.648;10.098;2022-07-18T05:56:02;16.50;99.90
8611;DHT22;4343;53.648;10.098;2022-07-18T05:58:28;16.60;99.90
8611;DHT22;4343;53.648;10.098;2022-07-18T06:00:53;16.60;99.90
8611;DHT22;4343;53.648;10.098;2022-07-18T06:03:19;16.60;99.90
8611;DHT22;4343;53.648;10.098;2022-07-18T06:05:45;16.70;99.90
8611;DHT22;4343;53.648;10.098;2022-07-18T06:08:10;16.70;99.90
8611;DHT22;4343;53.648;10.098;2022-07-18T06:10:36;16.70;99.90
8611;DHT22;4343;53.648;10.098;2022-07-18T06:13:01;16.80;99.90
8611;DHT22;4343;53.648;10.098;2022-07-18T06:15:27;16.90;99.90
8611;DHT22;4343;53.648;10.098;2022-07-18T06:17:52;17.00;99.90
8611;DHT22;4343;53.648;10.098;2022-07-18T06:20:18;17.00;99.90
8611;DHT22;4343;53.648;10.098;2022-07-18T06:22:44;17.10;99.90
8611;DHT22;4343;53.648;10.098;2022-07-18T06:25:10;17.20;99.90
8611;DHT22;4343;53.648;10.098;2022-07-18T06:27:35;17.30;99.90
8611;DHT22;4343;53.648;10.098;2022-07-18T06:30:02;17.40;99.90
8611;DHT22;4343;53.648;10.098;2022-07-18T06:32:30;17.50;99.90
8611;DHT22;4343;53.648;10.098;2022-07-18T06:34:55;17.60;99.90
8611;DHT22;4343;53.648;10.098;2022-07-18T06:37:21;17.70;99.90
8611;DHT22;4343;53.648;10.098;2022-07-18T06:39:46;17.70;99.90
8611;DHT22;4343;53.648;10.098;2022-07-18T06:42:12;17.80;99.90
8611;DHT22;4343;53.648;10.098;2022-07-18T06:44:37;17.90;99.90
8611;DHT22;4343;53.648;10.098;2022-07-18T06:47:03;18.10;99.90
8611;DHT22;4343;53.648;10.098;2022-07-18T06:49:28;18.20;99.90
8611;DHT22;4343;53.648;10.098;2022-07-18T06:51:54;18.30;99.90
8611;DHT22;4343;53.648;10.098;2022-07-18T06:54:20;18.30;99.90
8611;DHT22;4343;53.648;10.098;2022-07-18T06:56:46;18.40;99.90
8611;DHT22;4343;53.648;10.098;2022-07-18T06:59:11;18.50;99.90
8611;DHT22;4343;53.648;10.098;2022-07-18T07:01:37;18.60;99.90
8611;DHT22;4343;53.648;10.098;2022-07-18T07:04:03;18.60;99.90
8611;DHT22;4343;53.648;10.098;2022-07-18T07:06:28;18.70;99.90
8611;DHT22;4343;53.648;10.098;2022-07-18T07:08:54;18.70;99.90
8611;DHT22;4343;53.648;10.098;2022-07-18T07:11:19;18.80;99.90
8611;DHT22;4343;53.648;10.098;2022-07-18T07:13:47;18.90;99.90
8611;DHT22;4343;53.648;10.098;2022-07-18T07:16:13;19.10;99.90
8611;DHT22;4343;53.648;10.098;2022-07-18T07:18:38;19.20;99.90
8611;DHT22;4343;53.648;10.098;2022-07-18T07:21:05;19.40;99.90
8611;DHT22;4343;53.648;10.098;2022-07-18T07:23:31;19.60;99.90
8611;DHT22;4343;53.648;10.098;2022-07-18T07:25:56;19.80;99.90
8611;DHT22;4343;53.648;10.098;2022-07-18T07:28:22;19.90;99.90
8611;DHT22;4343;53.648;10.098;2022-07-18T07:30:47;20.00;99.90
8611;DHT22;4343;53.648;10.098;2022-07-18T07:33:13;20.10;99.90
8611;DHT22;4343;53.648;10.098;2022-07-18T07:35:38;20.30;99.90
8611;DHT22;4343;53.648;10.098;2022-07-18T07:38:04;20.40;99.90
8611;DHT22;4343;53.648;10.098;2022-07-18T07:40:30;20.40;99.90
8611;DHT22;4343;53.648;10.098;2022-07-18T07:43:15;20.50;99.90
8611;DHT22;4343;53.648;10.098;2022-07-18T07:45:42;20.60;99.90
8611;DHT22;4343;53.648;10.098;2022-07-18T07:48:08;20.70;99.90
8611;DHT22;4343;53.648;10.098;2022-07-18T07:50:34;20.70;99.90
8611;DHT22;4343;53.648;10.098;2022-07-18T07:53:00;20.80;99.90
8611;DHT22;4343;53.648;10.098;2022-07-18T07:55:26;20.80;99.90
8611;DHT22;4343;53.648;10.098;2022-07-18T07:57:53;20.90;99.90
8611;DHT22;4343;53.648;10.098;2022-07-18T08:00:19;21.00;99.90
8611;DHT22;4343;53.648;10.098;2022-07-18T08:02:53;21.10;99.90
8611;DHT22;4343;53.648;10.098;2022-07-18T08:05:19;21.20;99.90
8611;DHT22;4343;53.648;10.098;2022-07-18T08:07:44;21.30;99.90
8611;DHT22;4343;53.648;10.098;2022-07-18T08:10:10;21.40;99.90
8611;DHT22;4343;53.648;10.098;2022-07-18T08:12:36;21.40;99.90
8611;DHT22;4343;53.648;10.098;2022-07-18T08:15:02;21.50;99.90
8611;DHT22;4343;53.648;10.098;2022-07-18T08:17:28;21.60;99.90
8611;DHT22;4343;53.648;10.098;2022-07-18T08:19:53;21.60;99.90
8611;DHT22;4343;53.648;10.098;2022-07-18T08:22:19;21.70;99.90
8611;DHT22;4343;53.648;10.098;2022-07-18T08:24:44;21.80;99.90
8611;DHT22;4343;53.648;10.098;2022-07-18T08:27:11;22.00;99.90
8611;DHT22;4343;53.648;10.098;2022-07-18T08:29:36;22.20;99.90
8611;DHT22;4343;53.648;10.098;2022-07-18T08:32:02;22.40;99.90
8611;DHT22;4343;53.648;10.098;2022-07-18T08:34:28;22.50;99.90
8611;DHT22;4343;53.648;10.098;2022-07-18T08:36:53;22.70;99.90
8611;DHT22;4343;53.648;10.098;2022-07-18T08:39:19;22.80;99.90
8611;DHT22;4343;53.648;10.098;2022-07-18T08:41:44;23.00;99.90
8611;DHT22;4343;53.648;10.098;2022-07-18T08:44:12;23.20;99.90
8611;DHT22;4343;53.648;10.098;2022-07-18T08:46:39;23.40;99.90
8611;DHT22;4343;53.648;10.098;2022-07-18T08:49:06;23.50;99.60
8611;DHT22;4343;53.648;10.098;2022-07-18T08:51:32;23.60;99.30
8611;DHT22;4343;53.648;10.098;2022-07-18T08:53:59;23.60;98.70
8611;DHT22;4343;53.648;10.098;2022-07-18T08:56:25;23.70;99.00
8611;DHT22;4343;53.648;10.098;2022-07-18T08:58:51;23.80;99.20
8611;DHT22;4343;53.648;10.098;2022-07-18T09:01:17;23.90;99.30
8611;DHT22;4343;53.648;10.098;2022-07-18T09:03:42;24.00;98.80
8611;DHT22;4343;53.648;10.098;2022-07-18T09:06:13;24.00;98.80
8611;DHT22;4343;53.648;10.098;2022-07-18T09:08:40;24.00;98.50
8611;DHT22;4343;53.648;10.098;2022-07-18T09:11:22;24.10;98.40
8611;DHT22;4343;53.648;10.098;2022-07-18T09:13:47;24.20;98.50
8611;DHT22;4343;53.648;10.098;2022-07-18T09:16:14;24.20;98.90
8611;DHT22;4343;53.648;10.098;2022-07-18T09:18:45;24.30;98.90
8611;DHT22;4343;53.648;10.098;2022-07-18T09:21:19;24.40;98.60
8611;DHT22;4343;53.648;10.098;2022-07-18T09:23:48;24.50;98.20
8611;DHT22;4343;53.648;10.098;2022-07-18T09:26:40;24.70;98.00
8611;DHT22;4343;53.648;10.098;2022-07-18T09:29:06;24.90;97.70
8611;DHT22;4343;53.648;10.098;2022-07-18T09:31:31;25.00;97.60
8611;DHT22;4343;53.648;10.098;2022-07-18T09:33:59;25.10;97.50
8611;DHT22;4343;53.648;10.098;2022-07-18T09:36:26;25.10;97.20
8611;DHT22;4343;53.648;10.098;2022-07-18T09:38:52;25.10;96.70
8611;DHT22;4343;53.648;10.098;2022-07-18T09:41:23;25.20;96.90
8611;DHT22;4343;53.648;10.098;2022-07-18T09:43:50;25.30;97.20
8611;DHT22;4343;53.648;10.098;2022-07-18T09:46:15;25.40;97.30
8611;DHT22;4343;53.648;10.098;2022-07-18T09:48:41;25.50;96.70
8611;DHT22;4343;53.648;10.098;2022-07-18T09:51:07;25.60;96.60
8611;DHT22;4343;53.648;10.098;2022-07-18T09:53:43;25.70;96.70
8611;DHT22;4343;53.648;10.098;2022-07-18T09:56:25;25.80;96.70
8611;DHT22;4343;53.648;10.098;2022-07-18T09:58:53;26.00;97.10
8611;DHT22;4343;53.648;10.098;2022-07-18T10:01:19;26.10;96.80
8611;DHT22;4343;53.648;10.098;2022-07-18T10:03:44;26.30;96.10
8611;DHT22;4343;53.648;10.098;2022-07-18T10:06:10;26.30;95.40
8611;DHT22;4343;53.648;10.098;2022-07-18T10:08:36;26.30;95.00
8611;DHT22;4343;53.648;10.098;2022-07-18T10:11:05;26.30;94.50
8611;DHT22;4343;53.648;10.098;2022-07-18T10:13:33;26.30;94.90
8611;DHT22;4343;53.648;10.098;2022-07-18T10:15:59;26.40;95.20
8611;DHT22;4343;53.648;10.098;2022-07-18T10:18:27;26.50;95.40
8611;DHT22;4343;53.648;10.098;2022-07-18T10:20:58;26.60;95.50
8611;DHT22;4343;53.648;10.098;2022-07-18T10:26:16;26.70;94.70
8611;DHT22;4343;53.648;10.098;2022-07-18T10:36:31;26.90;94.50
8611;DHT22;4343;53.648;10.098;2022-07-18T10:39:15;27.00;94.00
8611;DHT22;4343;53.648;10.098;2022-07-18T10:49:59;27.40;94.90
8611;DHT22;4343;53.648;10.098;2022-07-18T10:57:29;27.90;93.90
8611;DHT22;4343;53.648;10.098;2022-07-18T11:02:45;28.00;91.10
8611;DHT22;4343;53.648;10.098;2022-07-18T11:21:29;27.60;92.80
8611;DHT22;4343;53.648;10.098;2022-07-18T11:24:16;27.60;93.30
8611;DHT22;4343;53.648;10.098;2022-07-18T11:26:45;27.50;92.60
8611;DHT22;4343;53.648;10.098;2022-07-18T11:29:13;27.40;92.50
8611;DHT22;4343;53.648;10.098;2022-07-18T11:34:12;27.40;93.00
8611;DHT22;4343;53.648;10.098;2022-07-18T11:36:41;27.40;92.80
8611;DHT22;4343;53.648;10.098;2022-07-18T11:39:06;27.40;93.40
8611;DHT22;4343;53.648;10.098;2022-07-18T11:41:32;27.40;93.40
8611;DHT22;4343;53.648;10.098;2022-07-18T11:43:58;27.50;93.30
8611;DHT22;4343;53.648;10.098;2022-07-18T11:46:26;27.50;93.20
8611;DHT22;4343;53.648;10.098;2022-07-18T11:48:59;27.50;93.30
8611;DHT22;4343;53.648;10.098;2022-07-18T11:51:32;27.50;93.30
8611;DHT22;4343;53.648;10.098;2022-07-18T11:53:58;27.50;92.50
8611;DHT22;4343;53.648;10.098;2022-07-18T11:56:24;27.40;92.20
8611;DHT22;4343;53.648;10.098;2022-07-18T11:58:50;27.40;92.20
8611;DHT22;4343;53.648;10.098;2022-07-18T12:01:16;27.40;92.50
8611;DHT22;4343;53.648;10.098;2022-07-18T12:03:43;27.40;92.20
8611;DHT22;4343;53.648;10.098;2022-07-18T12:06:14;27.40;91.70
8611;DHT22;4343;53.648;10.098;2022-07-18T12:08:48;27.40;91.10
8611;DHT22;4343;53.648;10.098;2022-07-18T12:11:35;27.30;91.60
8611;DHT22;4343;53.648;10.098;2022-07-18T12:19:09;27.40;91.60
8611;DHT22;4343;53.648;10.098;2022-07-18T12:24:39;27.50;91.50
8611;DHT22;4343;53.648;10.098;2022-07-18T12:27:21;27.50;91.20
8611;DHT22;4343;53.648;10.098;2022-07-18T12:32:58;27.50;91.10
8611;DHT22;4343;53.648;10.098;2022-07-18T12:35:30;27.60;91.00
8611;DHT22;4343;53.648;10.098;2022-07-18T12:38:04;27.80;91.90
8611;DHT22;4343;53.648;10.098;2022-07-18T12:45:55;28.50;90.50
8611;DHT22;4343;53.648;10.098;2022-07-18T12:48:22;28.80;90.60
8611;DHT22;4343;53.648;10.098;2022-07-18T12:50:59;29.10;89.00
8611;DHT22;4343;53.648;10.098;2022-07-18T12:53:26;29.40;89.50
8611;DHT22;4343;53.648;10.098;2022-07-18T12:55:52;29.70;90.10
8611;DHT22;4343;53.648;10.098;2022-07-18T12:58:19;29.90;87.10
8611;DHT22;4343;53.648;10.098;2022-07-18T13:00:45;30.00;86.30
8611;DHT22;4343;53.648;10.098;2022-07-18T13:03:11;30.10;85.70
8611;DHT22;4343;53.648;10.098;2022-07-18T13:05:37;30.20;85.70
8611;DHT22;4343;53.648;10.098;2022-07-18T13:08:03;30.20;84.70
8611;DHT22;4343;53.648;10.098;2022-07-18T13:10:29;30.10;84.00
8611;DHT22;4343;53.648;10.098;2022-07-18T13:12:54;30.10;84.30
8611;DHT22;4343;53.648;10.098;2022-07-18T13:15:21;30.00;83.10
8611;DHT22;4343;53.648;10.098;2022-07-18T13:17:48;29.90;82.90
8611;DHT22;4343;53.648;10.098;2022-07-18T13:20:17;29.70;83.80
8611;DHT22;4343;53.648;10.098;2022-07-18T13:22:42;29.70;84.70
8611;DHT22;4343;53.648;10.098;2022-07-18T13:25:09;29.60;84.70
8611;DHT22;4343;53.648;10.098;2022-07-18T13:27:36;29.50;84.60
8611;DHT22;4343;53.648;10.098;2022-07-18T13:30:03;29.40;83.80
8611;DHT22;4343;53.648;10.098;2022-07-18T13:32:29;29.30;83.50
8611;DHT22;4343;53.648;10.098;2022-07-18T13:34:55;29.20;84.20
8611;DHT22;4343;53.648;10.098;2022-07-18T13:37:21;29.10;84.80
8611;DHT22;4343;53.648;10.098;2022-07-18T13:39:47;29.00;84.70
8611;DHT22;4343;53.648;10.098;2022-07-18T13:42:12;29.00;85.30
8611;DHT22;4343;53.648;10.098;2022-07-18T13:44:38;29.00;86.70
8611;DHT22;4343;53.648;10.098;2022-07-18T13:47:04;29.00;86.30
8611;DHT22;4343;53.648;10.098;2022-07-18T13:49:29;29.00;87.00
8611;DHT22;4343;53.648;10.098;2022-07-18T13:51:56;29.10;86.30
8611;DHT22;4343;53.648;10.098;2022-07-18T13:54:21;29.10;85.20
8611;DHT22;4343;53.648;10.098;2022-07-18T13:56:47;29.00;84.30
8611;DHT22;4343;53.648;10.098;2022-07-18T13:59:12;29.00;85.20
8611;DHT22;4343;53.648;10.098;2022-07-18T14:01:39;29.00;84.70
8611;DHT22;4343;53.648;10.098;2022-07-18T14:04:04;28.90;85.20
8611;DHT22;4343;53.648;10.098;2022-07-18T14:06:30;28.90;86.00
8611;DHT22;4343;53.648;10.098;2022-07-18T14:08:55;29.00;86.40
8611;DHT22;4343;53.648;10.098;2022-07-18T14:11:21;29.00;85.30
8611;DHT22;4343;53.648;10.098;2022-07-18T14:13:47;29.20;85.50
8611;DHT22;4343;53.648;10.098;2022-07-18T14:16:13;29.30;85.50
8611;DHT22;4343;53.648;10.098;2022-07-18T14:18:39;29.40;85.10
8611;DHT22;4343;53.648;10.098;2022-07-18T14:21:04;29.60;83.20
8611;DHT22;4343;53.648;10.098;2022-07-18T14:23:30;29.70;80.90
8611;DHT22;4343;53.648;10.098;2022-07-18T14:25:55;29.80;79.70
8611;DHT22;4343;53.648;10.098;2022-07-18T14:28:21;29.90;79.70
8611;DHT22;4343;53.648;10.098;2022-07-18T14:30:47;29.90;79.60
8611;DHT22;4343;53.648;10.098;2022-07-18T14:33:12;30.00;79.90
8611;DHT22;4343;53.648;10.098;2022-07-18T14:35:38;30.00;78.70
8611;DHT22;4343;53.648;10.098;2022-07-18T14:38:04;30.00;78.90
8611;DHT22;4343;53.648;10.098;2022-07-18T14:40:30;30.00;79.80
8611;DHT22;4343;53.648;10.098;2022-07-18T14:42:56;30.00;79.50
8611;DHT22;4343;53.648;10.098;2022-07-18T14:45:21;30.10;79.50
8611;DHT22;4343;53.648;10.098;2022-07-18T14:47:47;30.00;79.20
8611;DHT22;4343;53.648;10.098;2022-07-18T14:50:12;30.00;78.60
8611;DHT22;4343;53.648;10.098;2022-07-18T14:52:39;29.90;77.90
8611;DHT22;4343;53.648;10.098;2022-07-18T14:55:06;29.90;78.90
8611;DHT22;4343;53.648;10.098;2022-07-18T14:57:32;29.80;80.40
8611;DHT22;4343;53.648;10.098;2022-07-18T14:59:57;29.80;80.90
8611;DHT22;4343;53.648;10.098;2022-07-18T15:02:23;29.70;81.40
8611;DHT22;4343;53.648;10.098;2022-07-18T15:04:48;29.60;81.40
8611;DHT22;4343;53.648;10.098;2022-07-18T15:07:14;29.50;81.30
8611;DHT22;4343;53.648;10.098;2022-07-18T15:09:40;29.40;81.50
8611;DHT22;4343;53.648;10.098;2022-07-18T15:12:06;29.40;82.30
8611;DHT22;4343;53.648;10.098;2022-07-18T15:14:33;29.30;82.40
8611;DHT22;4343;53.648;10.098;2022-07-18T15:16:59;29.20;83.00
8611;DHT22;4343;53.648;10.098;2022-07-18T15:19:24;29.20;83.70
8611;DHT22;4343;53.648;10.098;2022-07-18T15:21:50;29.10;84.30
8611;DHT22;4343;53.648;10.098;2022-07-18T15:24:15;29.00;85.30
8611;DHT22;4343;53.648;10.098;2022-07-18T15:26:41;29.00;85.20
8611;DHT22;4343;53.648;10.098;2022-07-18T15:29:06;28.90;84.20
8611;DHT22;4343;53.648;10.098;2022-07-18T15:31:33;28.80;84.40
8611;DHT22;4343;53.648;10.098;2022-07-18T15:33:58;28.80;84.00
8611;DHT22;4343;53.648;10.098;2022-07-18T15:36:24;28.70;84.40
8611;DHT22;4343;53.648;10.098;2022-07-18T15:38:49;28.60;84.70
8611;DHT22;4343;53.648;10.098;2022-07-18T15:41:15;28.50;84.60
8611;DHT22;4343;53.648;10.098;2022-07-18T15:43:45;28.50;85.50
8611;DHT22;4343;53.648;10.098;2022-07-18T15:46:13;28.40;85.50
8611;DHT22;4343;53.648;10.098;2022-07-18T15:48:43;28.30;83.90
8611;DHT22;4343;53.648;10.098;2022-07-18T15:51:14;28.20;83.80
8611;DHT22;4343;53.648;10.098;2022-07-18T15:53:44;28.10;84.30
8611;DHT22;4343;53.648;10.098;2022-07-18T15:56:18;28.10;84.70
8611;DHT22;4343;53.648;10.098;2022-07-18T15:58:45;28.00;85.50
8611;DHT22;4343;53.648;10.098;2022-07-18T16:01:11;27.90;86.00
8611;DHT22;4343;53.648;10.098;2022-07-18T16:03:37;27.90;86.80
8611;DHT22;4343;53.648;10.098;2022-07-18T16:06:12;27.80;87.50
8611;DHT22;4343;53.648;10.098;2022-07-18T16:08:39;27.70;88.40
8611;DHT22;4343;53.648;10.098;2022-07-18T16:11:05;27.70;87.60
8611;DHT22;4343;53.648;10.098;2022-07-18T16:13:36;27.60;87.20
8611;DHT22;4343;53.648;10.098;2022-07-18T16:16:02;27.60;88.70
8611;DHT22;4343;53.648;10.098;2022-07-18T16:18:28;27.50;85.10
8611;DHT22;4343;53.648;10.098;2022-07-18T16:20:54;27.40;84.80
8611;DHT22;4343;53.648;10.098;2022-07-18T16:23:21;27.40;84.70
8611;DHT22;4343;53.648;10.098;2022-07-18T16:25:47;27.30;84.60
8611;DHT22;4343;53.648;10.098;2022-07-18T16:28:13;27.30;84.30
8611;DHT22;4343;53.648;10.098;2022-07-18T16:30:40;27.20;85.50
8611;DHT22;4343;53.648;10.098;2022-07-18T16:33:07;27.20;86.60
8611;DHT22;4343;53.648;10.098;2022-07-18T16:35:38;27.10;87.20
8611;DHT22;4343;53.648;10.098;2022-07-18T16:38:05;27.10;87.90
8611;DHT22;4343;53.648;10.098;2022-07-18T16:40:45;27.10;88.90
8611;DHT22;4343;53.648;10.098;2022-07-18T16:43:11;27.00;88.80